createdAt,value
2023-01-29T00:02:06.234Z,8.83
2023-01-29T00:04:28.949Z,10.97
2023-01-29T00:06:54.790Z,9.30
2023-01-29T00:09:18.251Z,11.23
2023-01-29T00:11:41.358Z,10.00
2023-01-29T00:14:03.796Z,10.27
2023-01-29T00:16:26.167Z,9.53
2023-01-29T00:18:48.463Z,10.50
2023-01-29T00:21:22.940Z,9.50
2023-01-29T00:23:45.703Z,9.73
2023-01-29T00:26:08.158Z,9.37
2023-01-29T00:28:30.844Z,9.63
2023-01-29T00:30:53.087Z,9.07
2023-01-29T00:33:15.397Z,10.03
2023-01-29T00:35:40.139Z,9.47
2023-01-29T00:38:02.736Z,9.60
2023-01-29T00:40:26.110Z,10.63
2023-01-29T00:43:06.924Z,10.73
2023-01-29T00:45:29.310Z,9.57
2023-01-29T00:47:51.694Z,9.73
2023-01-29T00:50:14.598Z,9.47
2023-01-29T00:52:37.176Z,10.37
2023-01-29T00:55:00.670Z,11.17
2023-01-29T00:57:23.899Z,10.10
2023-01-29T00:59:49.395Z,9.57
2023-01-29T01:02:30.575Z,8.60
2023-01-29T01:04:52.860Z,9.97
2023-01-29T01:07:15.461Z,9.53
2023-01-29T01:09:56.296Z,9.10
2023-01-29T01:12:18.759Z,9.40
2023-01-29T01:14:43.205Z,11.03
2023-01-29T01:17:05.509Z,9.80
2023-01-29T01:19:27.876Z,9.97
2023-01-29T01:21:50.315Z,10.37
2023-01-29T01:24:21.512Z,10.50
2023-01-29T01:26:43.976Z,10.17
2023-01-29T01:29:06.309Z,12.00
2023-01-29T01:31:28.687Z,11.40
2023-01-29T01:33:51.640Z,10.53
2023-01-29T01:36:15.933Z,11.80
2023-01-29T01:38:44.492Z,10.50
2023-01-29T01:41:07.041Z,10.70
2023-01-29T01:43:38.281Z,9.40
2023-01-29T01:46:00.688Z,9.87
2023-01-29T01:48:25.565Z,10.07
2023-01-29T01:50:51.076Z,9.23
2023-01-29T01:53:14.354Z,10.20
2023-01-29T01:55:38.422Z,10.43
2023-01-29T01:58:05.157Z,10.23
2023-01-29T02:00:27.631Z,9.80
2023-01-29T02:03:08.434Z,9.80
2023-01-29T02:05:51.149Z,9.47
2023-01-29T02:08:32.680Z,9.37
2023-01-29T02:10:55.881Z,9.43
2023-01-29T02:13:19.413Z,8.93
2023-01-29T02:15:46.552Z,9.93
2023-01-29T02:18:09.274Z,9.73
2023-01-29T02:20:32.205Z,9.70
2023-01-29T02:23:17.711Z,10.90
2023-01-29T02:26:00.017Z,10.33
2023-01-29T02:28:26.372Z,9.73
2023-01-29T02:30:48.877Z,10.10
2023-01-29T02:33:27.111Z,9.83
2023-01-29T02:35:58.001Z,9.87
2023-01-29T02:38:39.277Z,9.67
2023-01-29T02:41:10.733Z,8.80
2023-01-29T02:43:36.647Z,8.57
2023-01-29T02:46:16.003Z,9.00
2023-01-29T02:48:44.251Z,8.13
2023-01-29T02:51:09.572Z,8.57
2023-01-29T02:53:36.285Z,8.97
2023-01-29T02:56:03.188Z,8.90
2023-01-29T02:58:25.604Z,9.53
2023-01-29T03:00:49.956Z,8.90
2023-01-29T03:03:18.313Z,8.47
2023-01-29T03:05:44.846Z,8.47
2023-01-29T03:08:10.243Z,8.77
2023-01-29T03:10:37.625Z,8.20
2023-01-29T03:13:05.099Z,9.17
2023-01-29T03:15:30.242Z,8.70
2023-01-29T03:18:18.382Z,9.13
2023-01-29T03:20:48.180Z,8.93
2023-01-29T03:23:48.820Z,8.47
2023-01-29T03:26:30.830Z,8.27
2023-01-29T03:29:11.916Z,8.80
2023-01-29T03:31:55.980Z,9.13
2023-01-29T03:34:34.661Z,9.37
2023-01-29T03:37:09.689Z,8.80
2023-01-29T03:39:34.972Z,8.97
2023-01-29T03:42:01.386Z,8.40
2023-01-29T03:44:24.901Z,8.27
2023-01-29T03:46:50.502Z,8.87
2023-01-29T03:49:12.826Z,8.77
2023-01-29T03:51:35.920Z,8.17
2023-01-29T03:54:20.879Z,8.03
2023-01-29T03:56:54.825Z,8.77
2023-01-29T03:59:17.202Z,7.97
2023-01-29T04:02:02.327Z,9.13
2023-01-29T04:04:29.989Z,8.97
2023-01-29T04:06:53.582Z,9.27
2023-01-29T04:09:22.101Z,9.13
2023-01-29T04:11:48.398Z,10.07
2023-01-29T04:14:11.066Z,9.67
2023-01-29T04:16:36.649Z,9.07
2023-01-29T04:19:25.767Z,10.80
2023-01-29T04:21:50.268Z,11.03
2023-01-29T04:24:12.927Z,10.60
2023-01-29T04:26:38.602Z,9.10
2023-01-29T04:29:01.026Z,8.60
2023-01-29T04:31:25.850Z,8.97
2023-01-29T04:34:04.672Z,8.93
2023-01-29T04:36:26.881Z,8.83
2023-01-29T04:38:58.668Z,9.40
2023-01-29T04:41:41.264Z,9.20
2023-01-29T04:44:31.163Z,9.90
2023-01-29T04:47:05.450Z,8.83
2023-01-29T04:49:35.880Z,10.07
2023-01-29T04:51:58.262Z,11.17
2023-01-29T04:54:29.519Z,10.10
2023-01-29T04:57:01.668Z,11.00
2023-01-29T04:59:32.943Z,10.60
2023-01-29T05:01:55.285Z,10.43
2023-01-29T05:04:19.944Z,11.57
2023-01-29T05:06:42.874Z,10.40
2023-01-29T05:09:05.169Z,10.60
2023-01-29T05:11:27.419Z,11.33
2023-01-29T05:13:49.939Z,10.10
2023-01-29T05:16:17.787Z,11.30
2023-01-29T05:18:47.108Z,10.67
2023-01-29T05:21:12.017Z,10.90
2023-01-29T05:23:34.283Z,14.00
2023-01-29T05:25:57.694Z,12.63
2023-01-29T05:28:20.010Z,12.13
2023-01-29T05:30:42.676Z,11.27
2023-01-29T05:33:05.933Z,11.50
2023-01-29T05:35:28.697Z,11.43
2023-01-29T05:37:51.070Z,10.97
2023-01-29T05:40:14.579Z,11.50
2023-01-29T05:42:37.244Z,11.60
2023-01-29T05:44:59.754Z,12.47
2023-01-29T05:47:22.402Z,12.43
2023-01-29T05:49:44.762Z,11.20
2023-01-29T05:52:07.289Z,11.83
2023-01-29T05:54:35.186Z,12.67
2023-01-29T05:56:57.745Z,11.80
2023-01-29T05:59:20.190Z,11.97
2023-01-29T06:01:42.543Z,12.30
2023-01-29T06:04:05.256Z,11.47
2023-01-29T06:06:27.605Z,12.07
2023-01-29T06:08:49.982Z,11.93
2023-01-29T06:11:13.404Z,11.70
2023-01-29T06:13:38.932Z,11.53
2023-01-29T06:16:01.646Z,12.13
2023-01-29T06:18:25.065Z,12.70
2023-01-29T06:20:48.367Z,11.70
2023-01-29T06:23:10.600Z,12.07
2023-01-29T06:25:33.122Z,11.87
2023-01-29T06:27:59.150Z,12.83
2023-01-29T06:30:24.478Z,12.33
2023-01-29T06:32:46.887Z,13.00
2023-01-29T06:35:16.390Z,12.80
2023-01-29T06:37:39.067Z,11.77
2023-01-29T06:40:01.882Z,11.13
2023-01-29T06:42:27.950Z,10.93
2023-01-29T06:44:59.356Z,10.90
2023-01-29T06:47:21.975Z,10.57
2023-01-29T06:49:44.940Z,11.80
2023-01-29T06:52:07.251Z,12.37
2023-01-29T06:54:32.839Z,12.03
2023-01-29T06:56:56.314Z,11.03
2023-01-29T06:59:18.751Z,11.37
2023-01-29T07:01:42.595Z,11.83
2023-01-29T07:04:05.505Z,11.83
2023-01-29T07:06:31.688Z,11.13
2023-01-29T07:08:54.357Z,13.13
2023-01-29T07:11:17.746Z,12.13
2023-01-29T07:14:06.137Z,12.50
2023-01-29T07:16:31.790Z,12.60
2023-01-29T07:18:58.628Z,12.07
2023-01-29T07:21:21.039Z,12.07
2023-01-29T07:23:46.857Z,11.63
2023-01-29T07:26:09.495Z,11.53
2023-01-29T07:28:56.520Z,12.60
2023-01-29T07:31:19.212Z,12.37
2023-01-29T07:33:44.455Z,13.13
2023-01-29T07:36:10.442Z,11.27
2023-01-29T07:38:32.902Z,12.70
2023-01-29T07:40:55.483Z,12.27
2023-01-29T07:43:40.209Z,12.00
2023-01-29T07:46:08.549Z,12.80
2023-01-29T07:48:40.054Z,12.67
2023-01-29T07:51:02.472Z,11.87
2023-01-29T07:53:29.015Z,11.83
2023-01-29T07:55:57.414Z,12.23
2023-01-29T07:58:19.771Z,13.63
2023-01-29T08:00:42.127Z,11.87
2023-01-29T08:03:06.584Z,11.27
2023-01-29T08:05:29.011Z,12.17
2023-01-29T08:08:06.189Z,13.13
2023-01-29T08:10:38.967Z,12.63
2023-01-29T08:13:03.018Z,12.57
2023-01-29T08:15:26.006Z,13.17
2023-01-29T08:20:30.877Z,13.80
2023-01-29T08:23:31.496Z,13.30
2023-01-29T08:25:56.071Z,13.73
2023-01-29T08:28:20.684Z,12.90
2023-01-29T08:30:44.064Z,12.53
2023-01-29T08:33:06.761Z,13.70
2023-01-29T08:35:28.986Z,13.73
2023-01-29T08:37:59.438Z,14.00
2023-01-29T08:40:22.189Z,15.60
2023-01-29T08:42:44.698Z,14.40
2023-01-29T08:45:07.357Z,15.67
2023-01-29T08:47:30.009Z,15.77
2023-01-29T08:49:52.281Z,13.73
2023-01-29T08:52:15.302Z,15.00
2023-01-29T08:54:37.594Z,15.80
2023-01-29T08:57:00.130Z,17.53
2023-01-29T08:59:22.910Z,15.63
2023-01-29T09:01:45.248Z,15.97
2023-01-29T09:04:07.658Z,16.73
2023-01-29T09:06:29.940Z,17.17
2023-01-29T09:08:52.228Z,16.87
2023-01-29T09:11:14.720Z,15.73
2023-01-29T09:13:41.096Z,16.07
2023-01-29T09:16:04.030Z,16.37
2023-01-29T09:18:26.266Z,16.57
2023-01-29T09:20:49.090Z,16.20
2023-01-29T09:23:11.992Z,15.70
2023-01-29T09:25:34.256Z,14.93
2023-01-29T09:27:56.464Z,15.13
2023-01-29T09:30:19.044Z,14.57
2023-01-29T09:32:53.128Z,14.63
2023-01-29T09:35:17.713Z,15.93
2023-01-29T09:37:40.159Z,15.47
2023-01-29T09:40:02.380Z,16.37
2023-01-29T09:42:24.748Z,15.33
2023-01-29T09:44:46.969Z,14.57
2023-01-29T09:47:12.489Z,15.43
2023-01-29T09:49:42.486Z,15.80
2023-01-29T09:52:04.733Z,15.77
2023-01-29T09:54:30.508Z,16.33
2023-01-29T09:56:54.828Z,16.97
2023-01-29T09:59:18.604Z,17.03
2023-01-29T10:01:41.121Z,16.87
2023-01-29T10:04:23.347Z,17.90
2023-01-29T10:07:00.932Z,17.63
2023-01-29T10:09:23.204Z,18.27
2023-01-29T10:11:57.702Z,18.80
2023-01-29T10:14:31.313Z,19.10
2023-01-29T10:17:01.531Z,19.07
2023-01-29T10:19:42.594Z,19.30
2023-01-29T10:22:23.920Z,18.27
2023-01-29T10:25:05.873Z,18.70
2023-01-29T10:27:31.915Z,18.93
2023-01-29T10:29:56.021Z,19.03
2023-01-29T10:32:19.863Z,18.17
2023-01-29T10:34:45.100Z,19.67
2023-01-29T10:37:23.947Z,20.87
2023-01-29T10:39:46.603Z,19.37
2023-01-29T10:42:14.922Z,19.40
2023-01-29T10:44:59.145Z,19.57
2023-01-29T10:47:40.612Z,20.70
2023-01-29T10:50:21.385Z,21.10
2023-01-29T10:52:58.027Z,20.20
2023-01-29T10:55:40.712Z,19.50
2023-01-29T10:58:15.314Z,17.97
2023-01-29T11:00:41.525Z,19.03
2023-01-29T11:03:26.994Z,19.47
2023-01-29T11:06:10.076Z,21.10
2023-01-29T11:08:38.290Z,22.20
2023-01-29T11:11:10.053Z,21.57
2023-01-29T11:13:35.660Z,22.77
2023-01-29T11:15:58.422Z,25.67
2023-01-29T11:18:21.107Z,23.90
2023-01-29T11:20:44.770Z,22.37
2023-01-29T11:23:07.690Z,21.97
2023-01-29T11:25:32.669Z,21.67
2023-01-29T11:28:00.991Z,22.60
2023-01-29T11:30:27.566Z,20.97
2023-01-29T11:32:51.658Z,20.63
2023-01-29T11:35:16.952Z,21.73
2023-01-29T11:37:40.537Z,22.13
2023-01-29T11:40:03.533Z,21.53
2023-01-29T11:42:27.539Z,22.93
2023-01-29T11:44:52.601Z,23.03
2023-01-29T11:47:27.272Z,21.30
2023-01-29T11:49:57.369Z,20.67
2023-01-29T11:52:21.517Z,21.37
2023-01-29T11:54:50.566Z,21.13
2023-01-29T11:57:23.811Z,21.97
2023-01-29T11:59:50.008Z,20.50
2023-01-29T12:02:18.748Z,21.83
2023-01-29T12:04:41.316Z,20.97
2023-01-29T12:07:03.638Z,21.27
2023-01-29T12:09:28.515Z,21.87
2023-01-29T12:11:52.820Z,21.87
2023-01-29T12:14:28.155Z,21.33
2023-01-29T12:16:50.498Z,23.07
2023-01-29T12:19:17.817Z,22.70
2023-01-29T12:21:47.497Z,23.40
2023-01-29T12:24:12.696Z,22.50
2023-01-29T12:26:46.421Z,22.83
2023-01-29T12:29:17.408Z,23.57
2023-01-29T12:31:44.216Z,23.33
2023-01-29T12:34:06.453Z,23.47
2023-01-29T12:36:32.817Z,25.03
2023-01-29T12:38:56.377Z,26.10
2023-01-29T12:41:35.713Z,25.67
2023-01-29T12:44:06.935Z,25.97
2023-01-29T12:46:34.658Z,24.83
2023-01-29T12:48:58.566Z,23.97
2023-01-29T12:51:23.981Z,24.17
2023-01-29T12:53:51.005Z,24.37
2023-01-29T12:56:17.951Z,24.23
2023-01-29T12:58:46.356Z,23.60
2023-01-29T13:01:20.327Z,22.60
2023-01-29T13:04:11.955Z,21.80
2023-01-29T13:06:41.715Z,22.33
2023-01-29T13:09:06.796Z,22.23
2023-01-29T13:11:33.939Z,21.70
2023-01-29T13:13:59.862Z,21.97
2023-01-29T13:16:31.672Z,22.33
2023-01-29T13:18:57.145Z,21.87
2023-01-29T13:21:20.929Z,21.67
2023-01-29T13:23:48.688Z,21.93
2023-01-29T13:26:14.044Z,21.80
2023-01-29T13:28:37.246Z,21.93
2023-01-29T13:31:11.857Z,21.20
2023-01-29T13:33:34.624Z,20.80
2023-01-29T13:35:59.820Z,20.57
2023-01-29T13:38:33.493Z,19.80
2023-01-29T13:41:03.985Z,21.43
2023-01-29T13:43:26.445Z,21.37
2023-01-29T13:45:51.415Z,23.17
2023-01-29T13:48:27.130Z,21.20
2023-01-29T13:50:51.596Z,20.40
2023-01-29T13:53:29.292Z,23.40
2023-01-29T13:55:51.617Z,23.03
2023-01-29T13:58:18.606Z,21.53
2023-01-29T14:00:41.091Z,22.20
2023-01-29T14:03:04.978Z,21.97
2023-01-29T14:05:30.137Z,20.90
2023-01-29T14:07:52.650Z,22.30
2023-01-29T14:10:16.738Z,21.43
2023-01-29T14:12:40.589Z,20.60
2023-01-29T14:15:18.931Z,20.43
2023-01-29T14:18:01.834Z,19.60
2023-01-29T14:20:32.369Z,19.97
2023-01-29T14:23:04.107Z,19.77
2023-01-29T14:25:38.045Z,19.13
2023-01-29T14:28:01.651Z,19.23
2023-01-29T14:30:25.035Z,19.97
2023-01-29T14:32:48.848Z,21.10
2023-01-29T14:35:20.485Z,19.57
2023-01-29T14:37:45.660Z,20.20
2023-01-29T14:40:19.915Z,19.67
2023-01-29T14:43:01.593Z,21.03
2023-01-29T14:45:26.874Z,21.30
2023-01-29T14:47:50.242Z,21.73
2023-01-29T14:50:34.891Z,23.27
2023-01-29T14:53:02.783Z,22.00
2023-01-29T14:55:34.313Z,22.17
2023-01-29T14:57:58.377Z,22.50
2023-01-29T15:00:27.395Z,21.13
2023-01-29T15:02:59.888Z,21.40
2023-01-29T15:05:28.979Z,21.40
2023-01-29T15:07:57.815Z,20.83
2023-01-29T15:10:23.457Z,20.20
2023-01-29T15:12:50.413Z,20.77
2023-01-29T15:15:22.514Z,20.73
2023-01-29T15:17:48.075Z,19.63
2023-01-29T15:20:31.916Z,21.47
2023-01-29T15:22:54.452Z,20.47
2023-01-29T15:25:19.238Z,21.03
2023-01-29T15:27:45.691Z,19.30
2023-01-29T15:30:08.526Z,20.77
2023-01-29T15:32:38.568Z,21.73
2023-01-29T15:35:01.174Z,19.97
2023-01-29T15:37:28.333Z,21.40
2023-01-29T15:39:53.160Z,20.43
2023-01-29T15:42:21.727Z,20.07
2023-01-29T15:44:55.621Z,20.30
2023-01-29T15:47:18.106Z,20.97
2023-01-29T15:49:41.031Z,20.30
2023-01-29T15:52:08.560Z,20.87
2023-01-29T15:54:35.604Z,21.07
2023-01-29T15:56:58.473Z,19.57
2023-01-29T15:59:25.723Z,21.13
2023-01-29T16:01:48.340Z,21.37
2023-01-29T16:04:14.327Z,21.33
2023-01-29T16:06:38.767Z,22.80
2023-01-29T16:09:01.619Z,24.13
2023-01-29T16:11:26.625Z,20.63
2023-01-29T16:13:50.483Z,21.20
2023-01-29T16:19:00.771Z,22.60
2023-01-29T16:21:27.102Z,23.43
2023-01-29T16:23:50.957Z,21.10
2023-01-29T16:26:18.201Z,21.90
2023-01-29T16:28:45.167Z,23.27
2023-01-29T16:31:08.369Z,22.70
2023-01-29T16:33:35.361Z,23.33
2023-01-29T16:36:00.089Z,22.70
2023-01-29T16:38:50.838Z,23.97
2023-01-29T16:41:17.470Z,22.33
2023-01-29T16:43:57.540Z,21.17
2023-01-29T16:47:01.485Z,22.63
2023-01-29T16:49:30.503Z,20.53
2023-01-29T16:51:54.077Z,20.37
2023-01-29T16:54:18.521Z,23.10
2023-01-29T16:56:41.276Z,23.20
2023-01-29T16:59:05.037Z,21.27
2023-01-29T17:01:35.524Z,19.87
2023-01-29T17:04:01.499Z,20.87
2023-01-29T17:06:25.375Z,20.67
2023-01-29T17:08:48.269Z,20.87
2023-01-29T17:11:24.788Z,20.07
2023-01-29T17:13:47.346Z,19.70
2023-01-29T17:16:16.210Z,19.33
2023-01-29T17:18:39.999Z,21.27
2023-01-29T17:21:11.992Z,20.20
2023-01-29T17:23:34.324Z,21.77
2023-01-29T17:25:56.917Z,22.10
2023-01-29T17:28:19.452Z,22.73
2023-01-29T17:30:42.593Z,23.90
2023-01-29T17:33:15.392Z,21.90
2023-01-29T17:35:37.841Z,24.83
2023-01-29T17:38:00.132Z,22.53
2023-01-29T17:40:26.621Z,21.73
2023-01-29T17:42:48.844Z,24.93
2023-01-29T17:45:11.261Z,24.50
2023-01-29T17:47:33.510Z,25.63
2023-01-29T17:49:55.715Z,26.30
2023-01-29T17:52:17.949Z,25.43
2023-01-29T17:54:40.283Z,24.93
2023-01-29T17:57:02.902Z,24.27
2023-01-29T17:59:27.648Z,24.87
2023-01-29T18:01:50.779Z,24.50
2023-01-29T18:04:13.732Z,23.50
2023-01-29T18:06:39.320Z,21.70
2023-01-29T18:09:01.703Z,24.87
2023-01-29T18:11:24.245Z,24.87
2023-01-29T18:13:46.554Z,22.93
2023-01-29T18:16:39.642Z,22.77
2023-01-29T18:19:23.367Z,23.17
2023-01-29T18:21:45.831Z,22.97
2023-01-29T18:24:08.304Z,24.03
2023-01-29T18:26:30.663Z,21.47
2023-01-29T18:28:53.042Z,23.87
2023-01-29T18:31:15.455Z,23.17
2023-01-29T18:33:37.914Z,23.83
2023-01-29T18:36:00.707Z,21.97
2023-01-29T18:38:23.128Z,21.50
2023-01-29T18:40:45.741Z,22.40
2023-01-29T18:43:08.023Z,24.13
2023-01-29T18:45:32.114Z,23.07
2023-01-29T18:47:54.817Z,24.20
2023-01-29T18:50:17.288Z,23.43
2023-01-29T18:52:40.848Z,24.80
2023-01-29T18:55:03.251Z,22.00
2023-01-29T18:58:28.407Z,22.20
2023-01-29T19:00:46.715Z,22.43
2023-01-29T19:03:09.382Z,23.50
2023-01-29T19:05:34.731Z,22.90
2023-01-29T19:07:58.486Z,22.27
2023-01-29T19:10:37.305Z,22.03
2023-01-29T19:13:09.050Z,22.53
2023-01-29T19:15:44.782Z,22.77
2023-01-29T19:18:07.438Z,23.37
2023-01-29T19:20:30.039Z,21.83
2023-01-29T19:22:58.278Z,23.80
2023-01-29T19:25:26.251Z,22.80
2023-01-29T19:27:51.272Z,23.17
2023-01-29T19:30:13.803Z,22.67
2023-01-29T19:32:36.050Z,23.67
2023-01-29T19:34:58.800Z,23.43
2023-01-29T19:37:21.576Z,23.93
2023-01-29T19:39:44.029Z,23.30
2023-01-29T19:42:06.540Z,22.27
2023-01-29T19:44:29.243Z,22.40
2023-01-29T19:46:51.909Z,25.10
2023-01-29T19:49:14.236Z,24.90
2023-01-29T19:51:36.833Z,27.90
2023-01-29T19:53:59.603Z,24.00
2023-01-29T19:56:22.227Z,21.80
2023-01-29T19:58:45.282Z,22.00
2023-01-29T20:01:15.544Z,23.37
2023-01-29T20:03:38.064Z,21.10
2023-01-29T20:06:04.133Z,21.97
2023-01-29T20:08:26.621Z,21.37
2023-01-29T20:10:49.638Z,21.87
2023-01-29T20:13:12.252Z,20.93
2023-01-29T20:15:34.663Z,21.40
2023-01-29T20:17:58.726Z,19.73
2023-01-29T20:20:37.443Z,19.50
2023-01-29T20:23:01.708Z,20.33
2023-01-29T20:25:24.567Z,20.47
2023-01-29T20:30:25.513Z,19.77
2023-01-29T20:32:48.612Z,19.70
2023-01-29T20:35:14.502Z,18.00
2023-01-29T20:37:37.152Z,19.43
2023-01-29T20:40:02.684Z,17.93
2023-01-29T20:42:25.351Z,18.33
2023-01-29T20:44:57.525Z,18.17
2023-01-29T20:47:23.136Z,18.53
2023-01-29T20:49:45.729Z,19.40
2023-01-29T20:52:18.482Z,19.80
2023-01-29T20:54:41.140Z,19.87
2023-01-29T20:57:10.091Z,19.40
2023-01-29T20:59:35.112Z,19.60
2023-01-29T21:01:57.898Z,19.30
2023-01-29T21:04:20.807Z,20.23
2023-01-29T21:06:43.497Z,18.97
2023-01-29T21:09:07.948Z,19.03
2023-01-29T21:11:40.663Z,19.87
2023-01-29T21:14:03.285Z,19.93
2023-01-29T21:16:26.458Z,21.90
2023-01-29T21:18:48.952Z,20.17
2023-01-29T21:21:11.411Z,20.23
2023-01-29T21:23:35.135Z,20.10
2023-01-29T21:26:12.902Z,19.23
2023-01-29T21:28:35.819Z,20.27
2023-01-29T21:31:10.773Z,19.87
2023-01-29T21:33:34.895Z,21.70
2023-01-29T21:36:00.953Z,18.97
2023-01-29T21:38:23.454Z,19.40
2023-01-29T21:44:07.997Z,20.57
2023-01-29T21:46:42.573Z,20.67
2023-01-29T21:49:05.353Z,20.37
2023-01-29T21:51:30.710Z,19.97
2023-01-29T21:53:53.527Z,20.17
2023-01-29T21:56:29.543Z,22.30
2023-01-29T21:58:57.128Z,19.53
2023-01-29T22:01:36.676Z,21.80
2023-01-29T22:08:02.574Z,22.10
2023-01-29T22:13:36.062Z,22.40
2023-01-29T22:15:59.120Z,21.33
2023-01-29T22:21:55.395Z,21.07
2023-01-29T22:24:38.173Z,21.47
2023-01-29T22:27:08.201Z,22.30
2023-01-29T22:29:31.172Z,22.27
2023-01-29T22:31:56.939Z,22.33
2023-01-29T22:34:19.322Z,22.30
2023-01-29T22:36:42.289Z,21.93
2023-01-29T22:43:09.319Z,20.60
2023-01-29T22:45:32.250Z,21.27
2023-01-29T22:48:20.388Z,22.70
2023-01-29T22:51:06.465Z,20.80
2023-01-29T22:53:29.109Z,21.33
2023-01-29T22:56:04.281Z,22.07
2023-01-29T23:01:18.439Z,20.87
2023-01-29T23:03:40.985Z,20.43
2023-01-29T23:06:04.622Z,19.37
2023-01-29T23:12:03.199Z,21.10
2023-01-29T23:14:46.032Z,20.47
2023-01-29T23:17:08.986Z,20.20
2023-01-29T23:19:58.914Z,20.23
2023-01-29T23:22:21.604Z,21.63
2023-01-29T23:24:43.927Z,20.10
2023-01-29T23:27:15.326Z,21.37
2023-01-29T23:29:38.071Z,21.97
2023-01-29T23:32:00.682Z,22.53
2023-01-29T23:34:23.068Z,21.47
2023-01-29T23:36:45.561Z,22.70
2023-01-29T23:39:09.617Z,21.33
2023-01-29T23:41:32.159Z,23.43
2023-01-29T23:43:54.837Z,22.27
2023-01-29T23:46:47.071Z,22.23
2023-01-29T23:49:12.539Z,24.43
2023-01-29T23:51:35.411Z,27.07
2023-01-29T23:53:57.821Z,23.63
2023-01-29T23:56:21.881Z,24.77
2023-01-29T23:58:45.031Z,23.33
